Breeze Hill, South Carolina
Current Conditions -  °F | °C
As of 5:53 AM on Saturday 20 Dec 2014 (Local Time) from KDNL Reporting Station
Light Rain Light Rain  
Wind Chill: 10°   Ceiling: 9500
Heat Index: 10°   Visibility: 6mi
Dew Point:   Wind: 6mph
Humidity: 96%   Direction: 90°E
Pressure: 30.14"   Gusts: NA
Location:  33.5159°N, 81.8379°W
Report Text: KDNL 201053Z AUTO 09005KT 6SM -RA BR OVC095 10/09 A3014 RMK AO2 SLP205 P0003 T01000094
Loading
Personal Weather Stations






























Interactive Weather Map New forecast layout! Learn more

10-Day Weather Forecast

Advertisements
Track Severe Weather on mobile